Leesburg, FL

4:09 PM EST on February 14, 2016 (GMT -0500)
Cypress Creek | | Change Station
CLOSE
Current Station
Personal Weather Station
Location: Leesburg, FL
Elevation: 82 ft
Nearby Weather Stations

Elev 82 ft 28.77 °N, 81.88 °W | Updated 2 seconds ago

Partly Cloudy
Partly Cloudy
66.6 °F
Feels Like 66.6 °F
N
3.6
Wind Variable Wind from SW
Gusts 4.9 mph

Today
High -- | Low -- °F
--% Chance of Precip.
Yesterday
High -- | Low -- °F
Precip. -- in
Pressure 30.21 in
Visibility 10.0 miles
Clouds Mostly Cloudy 5000 ft
Dew Point 22 °F
Humidity 18%
Rainfall 0.00 in
Snow Depth Not available.
7:07 AM 6:16 PM
Waxing Crescent, 45% visible
METAR KLEE 142053Z 09011KT 10SM BKN050 21/08 A3021 RMK AO2 SLP229 T02110078 56021
Pressure 30.21 in
Visibility 10.0 miles
Clouds Mostly Cloudy 5000 ft
Dew Point 22 °F
Humidity 18%
Rainfall 0.00 in
Snow Depth Not available.
7:07 AM 6:16 PM
Waxing Crescent, 45% visible
METAR KLEE 142053Z 09011KT 10SM BKN050 21/08 A3021 RMK AO2 SLP229 T02110078 56021

10-Day Weather Forecast

Almanac

Astronomy

Feb. 14, 2016 Rise Set
Actual Time
Civil Twilight
Nautical Twilight
Astronomical Twilight
Moon
Length of Visible Light
Length of Day
Tomorrow will be .
, % of the Moon is Illuminated

Today's Extremes

State Highs State Lows

Community

WunderPhotos

Upload Photos

1,892,885 photos uploaded!

WunderBlog® & News

Nearby

Air Quality

  Air Quality AQ Index Pollutant
Not available.

Snow Depth

Station Depth Elevation

Earthquake Activity

City Distance Mag. Time & Date
Minimum magnitude displayed is 2.5.

Coastal Water Temperatures

Place Temperature

Stations

Nearby Weather Stations

Station Location Temp. Windchill Dew Point Humidity Wind Precip. Elev Updated Type
                   

Watches & Warnings

There are currently no watches in effect.